createdAt,value
2023-03-06T00:02:02.731Z,11.70
2023-03-06T00:04:29.834Z,14.43
2023-03-06T00:06:56.994Z,12.55
2023-03-06T00:09:24.052Z,12.80
2023-03-06T00:11:51.123Z,14.73
2023-03-06T00:14:18.280Z,11.45
2023-03-06T00:16:45.385Z,13.20
2023-03-06T00:19:12.475Z,13.82
2023-03-06T00:21:41.410Z,14.77
2023-03-06T00:24:08.623Z,13.10
2023-03-06T00:26:36.660Z,12.45
2023-03-06T00:29:03.866Z,10.13
2023-03-06T00:31:30.972Z,11.60
2023-03-06T00:33:58.060Z,15.25
2023-03-06T00:36:25.212Z,13.13
2023-03-06T00:38:52.333Z,9.45
2023-03-06T00:41:19.619Z,13.98
2023-03-06T00:43:47.145Z,10.00
2023-03-06T00:46:14.239Z,10.13
2023-03-06T00:48:41.311Z,11.95
2023-03-06T00:51:08.633Z,11.40
2023-03-06T00:53:35.712Z,11.65
2023-03-06T00:56:02.866Z,10.10
2023-03-06T00:58:30.116Z,12.45
2023-03-06T01:00:57.374Z,13.73
2023-03-06T01:03:24.483Z,13.68
2023-03-06T01:05:51.639Z,17.52
2023-03-06T01:08:18.719Z,13.20
2023-03-06T01:10:45.820Z,13.02
2023-03-06T01:13:13.018Z,13.52
2023-03-06T01:15:40.143Z,13.55
2023-03-06T01:18:07.320Z,13.57
2023-03-06T01:20:34.517Z,11.25
2023-03-06T01:23:01.655Z,14.13
2023-03-06T01:25:28.870Z,11.43
2023-03-06T01:27:56.112Z,13.02
2023-03-06T01:30:23.230Z,11.80
2023-03-06T01:32:50.374Z,14.73
2023-03-06T01:35:17.588Z,14.68
2023-03-06T01:37:44.666Z,9.20
2023-03-06T01:40:12.478Z,13.55
2023-03-06T01:42:39.685Z,11.25
2023-03-06T01:45:15.911Z,11.38
2023-03-06T01:47:44.850Z,11.55
2023-03-06T01:50:12.656Z,11.75
2023-03-06T01:52:59.950Z,9.65
2023-03-06T01:55:28.564Z,10.10
2023-03-06T01:57:57.702Z,12.60
2023-03-06T02:00:26.521Z,11.68
2023-03-06T02:02:59.239Z,10.13
2023-03-06T02:05:26.311Z,15.35
2023-03-06T02:07:54.280Z,14.30
2023-03-06T02:10:21.703Z,11.60
2023-03-06T02:12:49.954Z,12.10
2023-03-06T02:15:19.044Z,10.95
2023-03-06T02:17:47.442Z,13.95
2023-03-06T02:20:14.708Z,11.65
2023-03-06T02:23:00.978Z,10.93
2023-03-06T02:25:34.167Z,11.52
2023-03-06T02:28:02.035Z,11.57
2023-03-06T02:30:29.893Z,14.63
2023-03-06T02:32:57.147Z,11.48
2023-03-06T02:35:25.897Z,10.38
2023-03-06T02:37:53.257Z,11.88
2023-03-06T02:40:22.001Z,12.23
2023-03-06T02:42:56.267Z,13.00
2023-03-06T02:45:31.041Z,10.57
2023-03-06T02:47:58.317Z,12.80
2023-03-06T02:50:25.434Z,14.88
2023-03-06T02:52:52.541Z,12.60
2023-03-06T02:55:19.750Z,11.45
2023-03-06T02:57:47.083Z,13.32
2023-03-06T03:00:14.853Z,14.43
2023-03-06T03:02:42.100Z,13.18
2023-03-06T03:05:09.315Z,14.90
2023-03-06T03:07:36.620Z,15.55
2023-03-06T03:10:04.202Z,11.23
2023-03-06T03:12:31.418Z,9.68
2023-03-06T03:14:58.506Z,15.98
2023-03-06T03:17:25.675Z,10.93
2023-03-06T03:19:52.786Z,12.93
2023-03-06T03:22:20.328Z,11.82
2023-03-06T03:24:48.003Z,13.77
2023-03-06T03:27:15.520Z,12.98
2023-03-06T03:29:42.767Z,13.80
2023-03-06T03:32:10.675Z,14.90
2023-03-06T03:34:38.024Z,15.48
2023-03-06T03:37:05.153Z,15.40
2023-03-06T03:39:32.661Z,13.52
2023-03-06T03:41:59.839Z,18.55
2023-03-06T03:44:26.940Z,16.95
2023-03-06T03:46:54.107Z,17.17
2023-03-06T03:49:21.214Z,19.42
2023-03-06T03:51:48.330Z,18.00
2023-03-06T03:54:15.562Z,22.50
2023-03-06T03:56:42.639Z,16.90
2023-03-06T03:59:10.107Z,23.60
2023-03-06T04:01:39.521Z,17.85
2023-03-06T04:04:06.993Z,23.52
2023-03-06T04:06:34.099Z,21.77
2023-03-06T04:09:01.270Z,22.42
2023-03-06T04:11:28.349Z,22.25
2023-03-06T04:13:55.429Z,24.98
2023-03-06T04:16:22.648Z,20.50
2023-03-06T04:18:49.847Z,19.30
2023-03-06T04:21:17.156Z,20.70
2023-03-06T04:23:44.301Z,20.17
2023-03-06T04:26:11.387Z,18.02
2023-03-06T04:28:38.525Z,22.80
2023-03-06T04:31:05.918Z,23.88
2023-03-06T04:33:33.073Z,24.75
2023-03-06T04:36:00.229Z,23.92
2023-03-06T04:38:27.451Z,29.45
2023-03-06T04:40:54.637Z,28.48
2023-03-06T04:43:21.941Z,25.13
2023-03-06T04:45:49.224Z,27.80
2023-03-06T04:48:17.944Z,24.88
2023-03-06T04:50:45.160Z,25.60
2023-03-06T04:53:12.391Z,22.95
2023-03-06T04:55:39.477Z,22.27
2023-03-06T04:58:06.550Z,22.65
2023-03-06T05:00:33.723Z,25.20
2023-03-06T05:03:01.470Z,21.08
2023-03-06T05:05:28.838Z,21.77
2023-03-06T05:07:56.378Z,24.33
2023-03-06T05:10:23.582Z,24.90
2023-03-06T05:12:50.689Z,21.38
2023-03-06T05:15:18.288Z,23.90
2023-03-06T05:17:46.492Z,25.45
2023-03-06T05:20:14.639Z,25.75
2023-03-06T05:22:42.069Z,24.27
2023-03-06T05:25:10.583Z,22.75
2023-03-06T05:27:38.206Z,22.42
2023-03-06T05:30:05.798Z,23.52
2023-03-06T05:32:35.479Z,19.33
2023-03-06T05:35:02.847Z,25.20
2023-03-06T05:37:30.017Z,22.27
2023-03-06T05:39:57.317Z,18.33
2023-03-06T05:42:24.471Z,20.77
2023-03-06T05:44:51.715Z,23.38
2023-03-06T05:47:18.854Z,23.45
2023-03-06T05:49:45.950Z,29.20
2023-03-06T05:52:14.928Z,23.50
2023-03-06T05:54:42.042Z,23.23
2023-03-06T05:57:09.153Z,23.25
2023-03-06T05:59:36.381Z,25.10
2023-03-06T06:02:05.501Z,23.00
2023-03-06T06:04:32.698Z,19.70
2023-03-06T06:07:00.806Z,24.60
2023-03-06T06:09:28.069Z,21.10
2023-03-06T06:11:56.628Z,21.88
2023-03-06T06:14:24.101Z,21.38
2023-03-06T06:16:51.179Z,22.88
2023-03-06T06:19:20.104Z,24.08
2023-03-06T06:21:48.238Z,24.17
2023-03-06T06:24:16.355Z,19.50
2023-03-06T06:26:43.757Z,23.17
2023-03-06T06:29:11.165Z,21.05
2023-03-06T06:31:38.282Z,19.85
2023-03-06T06:34:06.124Z,21.13
2023-03-06T06:36:33.529Z,19.48
2023-03-06T06:39:00.657Z,19.58
2023-03-06T06:41:42.644Z,20.85
2023-03-06T06:44:16.251Z,20.35
2023-03-06T06:49:32.570Z,23.02
2023-03-06T06:51:59.679Z,16.95
2023-03-06T06:54:27.175Z,20.50
2023-03-06T06:56:54.549Z,15.27
2023-03-06T06:59:23.727Z,19.92
2023-03-06T07:01:51.545Z,15.10
2023-03-06T07:04:19.282Z,16.80
2023-03-06T07:06:46.894Z,15.80
2023-03-06T07:09:14.429Z,13.18
2023-03-06T07:11:41.775Z,13.95
2023-03-06T07:14:08.956Z,15.55
2023-03-06T07:16:36.079Z,15.45
2023-03-06T07:19:03.253Z,16.60
2023-03-06T07:21:30.755Z,15.68
2023-03-06T07:23:58.278Z,18.80
2023-03-06T07:26:26.288Z,16.48
2023-03-06T07:28:53.817Z,32.65
2023-03-06T07:31:25.577Z,17.50
2023-03-06T07:33:53.638Z,15.20
2023-03-06T07:36:21.540Z,15.25
2023-03-06T07:38:48.709Z,13.25
2023-03-06T07:41:16.586Z,16.80
2023-03-06T07:43:44.412Z,13.90
2023-03-06T07:46:12.709Z,15.55
2023-03-06T07:48:39.952Z,13.98
2023-03-06T07:51:08.603Z,14.32
2023-03-06T07:53:35.964Z,11.18
2023-03-06T07:56:08.606Z,10.38
2023-03-06T07:58:36.476Z,11.25
2023-03-06T08:01:04.848Z,10.68
2023-03-06T08:03:32.467Z,11.43
2023-03-06T08:06:12.673Z,12.35
2023-03-06T08:08:40.519Z,13.40
2023-03-06T08:11:08.476Z,15.60
2023-03-06T08:13:35.763Z,14.95
2023-03-06T08:16:03.379Z,11.82
2023-03-06T08:18:30.662Z,14.05
2023-03-06T08:21:07.136Z,13.10
2023-03-06T08:23:34.674Z,12.18
2023-03-06T08:26:03.108Z,13.15
2023-03-06T08:28:30.302Z,13.07
2023-03-06T08:30:58.019Z,15.07
2023-03-06T08:33:28.052Z,14.50
2023-03-06T08:35:55.246Z,17.92
2023-03-06T08:38:22.341Z,14.30
2023-03-06T08:40:49.408Z,14.00
2023-03-06T08:43:16.584Z,14.60
2023-03-06T08:45:43.723Z,12.13
2023-03-06T08:48:10.837Z,10.98
2023-03-06T08:50:37.989Z,10.25
2023-03-06T08:53:05.075Z,10.27
2023-03-06T08:55:32.186Z,7.90
2023-03-06T08:57:59.364Z,13.45
2023-03-06T09:00:26.491Z,10.85
2023-03-06T09:02:53.593Z,12.05
2023-03-06T09:05:20.848Z,11.45
2023-03-06T09:07:48.088Z,10.60
2023-03-06T09:10:16.382Z,10.77
2023-03-06T09:12:50.648Z,13.40
2023-03-06T09:15:19.650Z,9.57
2023-03-06T09:17:47.780Z,10.18
2023-03-06T09:20:15.569Z,11.90
2023-03-06T09:22:42.734Z,7.93
2023-03-06T09:25:11.144Z,12.55
2023-03-06T09:27:38.227Z,10.25
2023-03-06T09:30:05.565Z,11.57
2023-03-06T09:32:32.742Z,9.00
2023-03-06T09:34:59.836Z,8.30
2023-03-06T09:37:26.949Z,10.15
2023-03-06T09:39:54.104Z,7.35
2023-03-06T09:42:23.515Z,7.30
2023-03-06T09:44:59.667Z,14.95
2023-03-06T09:47:41.634Z,9.48
2023-03-06T09:50:11.876Z,10.07
2023-03-06T09:52:46.421Z,12.77
2023-03-06T09:55:13.601Z,8.43
2023-03-06T09:57:59.602Z,9.65
2023-03-06T10:00:34.418Z,9.48
2023-03-06T10:03:08.582Z,10.73
2023-03-06T10:05:39.164Z,11.93
2023-03-06T10:08:07.749Z,8.55
2023-03-06T10:10:53.697Z,10.85
2023-03-06T10:13:33.410Z,8.18
2023-03-06T10:16:15.169Z,11.45
2023-03-06T10:18:42.357Z,10.13
2023-03-06T10:21:23.723Z,7.03
2023-03-06T10:26:20.866Z,6.63
2023-03-06T10:29:07.609Z,6.38
2023-03-06T10:31:35.234Z,9.48
2023-03-06T10:34:22.365Z,9.32
2023-03-06T10:36:51.162Z,7.18
2023-03-06T10:39:22.728Z,6.60
2023-03-06T10:41:50.190Z,8.05
2023-03-06T10:44:19.065Z,8.73
2023-03-06T10:46:47.957Z,9.45
2023-03-06T10:49:15.068Z,6.75
2023-03-06T10:51:55.660Z,6.43
2023-03-06T10:54:22.798Z,8.77
2023-03-06T10:56:49.892Z,10.75
2023-03-06T10:59:25.373Z,9.27
2023-03-06T11:01:54.115Z,7.22
2023-03-06T11:04:32.181Z,11.73
2023-03-06T11:07:13.761Z,6.85
2023-03-06T11:09:41.445Z,7.63
2023-03-06T11:12:20.613Z,8.35
2023-03-06T11:14:47.850Z,9.10
2023-03-06T11:17:28.575Z,6.28
2023-03-06T11:20:14.513Z,6.43
2023-03-06T11:22:42.503Z,9.05
2023-03-06T11:25:12.835Z,7.78
2023-03-06T11:27:42.827Z,9.50
2023-03-06T11:30:28.120Z,8.50
2023-03-06T11:33:01.066Z,6.70
2023-03-06T11:35:39.980Z,8.43
2023-03-06T11:38:13.574Z,8.27
2023-03-06T11:40:46.451Z,10.82
2023-03-06T11:43:19.379Z,8.13
2023-03-06T11:45:47.905Z,6.30
2023-03-06T11:48:15.009Z,7.18
2023-03-06T11:50:43.413Z,6.45
2023-03-06T11:53:12.063Z,11.70
2023-03-06T11:55:42.635Z,8.40
2023-03-06T11:58:28.338Z,11.48
2023-03-06T12:01:16.856Z,10.13
2023-03-06T12:03:44.178Z,10.10
2023-03-06T12:06:29.968Z,11.07
2023-03-06T12:09:15.468Z,6.70
2023-03-06T12:11:48.398Z,10.45
2023-03-06T12:14:22.871Z,6.18
2023-03-06T12:16:50.007Z,5.38
2023-03-06T12:19:26.153Z,5.75
2023-03-06T12:21:56.149Z,5.15
2023-03-06T12:24:32.155Z,4.57
2023-03-06T12:27:17.789Z,6.35
2023-03-06T12:29:58.288Z,5.13
2023-03-06T12:32:47.692Z,6.72
2023-03-06T12:35:14.841Z,4.47
2023-03-06T12:38:06.737Z,4.07
2023-03-06T12:40:52.599Z,5.78
2023-03-06T12:43:45.920Z,6.72
2023-03-06T12:46:17.715Z,7.13
2023-03-06T12:48:48.366Z,5.45
2023-03-06T12:51:17.754Z,4.55
2023-03-06T12:53:45.053Z,3.65
2023-03-06T12:56:15.057Z,7.10
2023-03-06T12:58:48.472Z,8.50
2023-03-06T13:01:27.628Z,5.50
2023-03-06T13:04:05.094Z,6.60
2023-03-06T13:07:01.277Z,4.05
2023-03-06T13:09:39.732Z,4.95
2023-03-06T13:12:16.817Z,5.65
2023-03-06T13:14:53.788Z,6.85
2023-03-06T13:17:21.428Z,5.65
2023-03-06T13:19:48.707Z,5.93
2023-03-06T13:22:27.587Z,8.23
2023-03-06T13:25:13.553Z,3.78
2023-03-06T13:27:52.938Z,4.63
2023-03-06T13:30:25.714Z,9.70
2023-03-06T13:32:53.211Z,3.42
2023-03-06T13:35:32.637Z,5.88
2023-03-06T13:38:00.610Z,4.95
2023-03-06T13:40:32.213Z,6.82
2023-03-06T13:43:08.130Z,5.97
2023-03-06T13:45:39.042Z,4.18
2023-03-06T13:48:41.668Z,4.70
2023-03-06T13:50:55.506Z,4.13
2023-03-06T13:53:35.345Z,4.63
2023-03-06T13:56:06.481Z,4.20
2023-03-06T13:58:52.199Z,4.68
2023-03-06T14:01:38.230Z,5.22
2023-03-06T14:04:19.550Z,5.25
2023-03-06T14:07:03.229Z,6.82
2023-03-06T14:09:35.615Z,5.40
2023-03-06T14:12:15.013Z,6.72
2023-03-06T14:14:48.959Z,6.38
2023-03-06T14:17:19.569Z,5.65
2023-03-06T14:19:46.868Z,7.05
2023-03-06T14:22:17.655Z,10.60
2023-03-06T14:24:52.906Z,6.85
2023-03-06T14:27:20.300Z,5.90
2023-03-06T14:29:48.749Z,7.88
2023-03-06T14:32:22.349Z,5.20
2023-03-06T14:34:49.620Z,4.72
2023-03-06T14:37:21.382Z,4.53
2023-03-06T14:39:48.619Z,3.72
2023-03-06T14:42:15.681Z,6.93
2023-03-06T14:44:44.148Z,8.13
2023-03-06T14:47:23.333Z,7.47
2023-03-06T14:50:10.415Z,9.23
2023-03-06T14:52:38.417Z,9.45
2023-03-06T14:55:10.668Z,6.82
2023-03-06T14:57:38.044Z,9.40
2023-03-06T15:00:06.953Z,11.27
2023-03-06T15:02:34.272Z,11.80
2023-03-06T15:05:04.099Z,9.00
2023-03-06T15:07:32.554Z,10.43
2023-03-06T15:10:00.196Z,9.90
2023-03-06T15:12:27.260Z,8.75
2023-03-06T15:14:58.598Z,10.00
2023-03-06T15:19:54.633Z,11.85
2023-03-06T15:22:41.525Z,15.38
2023-03-06T15:25:08.753Z,14.70
2023-03-06T15:27:36.104Z,13.95
2023-03-06T15:30:12.570Z,13.55
2023-03-06T15:32:42.569Z,12.25
2023-03-06T15:35:25.084Z,14.48
2023-03-06T15:37:52.590Z,11.35
2023-03-06T15:40:20.398Z,11.18
2023-03-06T15:42:49.510Z,12.63
2023-03-06T15:45:18.945Z,15.13
2023-03-06T15:47:47.028Z,15.38
2023-03-06T15:50:19.671Z,12.13
2023-03-06T15:52:47.303Z,11.63
2023-03-06T15:55:14.899Z,13.50
2023-03-06T15:57:45.349Z,17.48
2023-03-06T16:00:27.044Z,18.15
2023-03-06T16:02:55.319Z,19.98
2023-03-06T16:05:22.741Z,22.10
2023-03-06T16:07:49.852Z,21.30
2023-03-06T16:10:21.949Z,16.98
2023-03-06T16:12:56.866Z,23.20
2023-03-06T16:15:28.284Z,20.73
2023-03-06T16:20:23.493Z,26.77
2023-03-06T16:22:50.875Z,19.20
2023-03-06T16:25:18.560Z,22.63
2023-03-06T16:27:48.621Z,22.58
2023-03-06T16:30:18.041Z,22.27
2023-03-06T16:32:45.514Z,18.33
2023-03-06T16:35:13.392Z,16.38
2023-03-06T16:37:41.085Z,15.88
2023-03-06T16:40:17.381Z,18.35
2023-03-06T16:42:44.577Z,17.10
2023-03-06T16:45:12.032Z,20.63
2023-03-06T16:47:39.763Z,19.63
2023-03-06T16:50:07.243Z,17.40
2023-03-06T16:52:34.325Z,18.45
2023-03-06T16:55:01.419Z,19.55
2023-03-06T16:57:32.194Z,29.83
2023-03-06T16:59:59.318Z,21.52
2023-03-06T17:02:26.427Z,17.58
2023-03-06T17:04:53.641Z,13.10
2023-03-06T17:07:20.751Z,13.07
2023-03-06T17:09:47.863Z,17.88
2023-03-06T17:12:15.143Z,13.13
2023-03-06T17:14:42.303Z,15.10
2023-03-06T17:17:09.430Z,14.07
2023-03-06T17:19:36.722Z,12.80
2023-03-06T17:22:03.793Z,22.33
2023-03-06T17:24:30.868Z,14.98
2023-03-06T17:26:58.066Z,18.17
2023-03-06T17:29:25.185Z,24.10
2023-03-06T17:31:52.290Z,20.05
2023-03-06T17:34:19.536Z,23.70
2023-03-06T17:36:46.625Z,24.50
2023-03-06T17:39:13.768Z,22.83
2023-03-06T17:41:40.927Z,23.40
2023-03-06T17:44:08.160Z,24.75
2023-03-06T17:46:35.353Z,24.77
2023-03-06T17:49:02.626Z,24.00
2023-03-06T17:51:29.885Z,23.67
2023-03-06T17:53:57.447Z,23.02
2023-03-06T17:56:24.705Z,22.25
2023-03-06T17:58:52.439Z,22.67
2023-03-06T18:01:20.837Z,22.88
2023-03-06T18:03:49.102Z,22.23
2023-03-06T18:06:16.935Z,24.08
2023-03-06T18:08:44.172Z,22.95
2023-03-06T18:11:11.624Z,19.17
2023-03-06T18:13:40.097Z,23.85
2023-03-06T18:16:08.161Z,24.00
2023-03-06T18:18:35.537Z,23.05
2023-03-06T18:21:06.352Z,23.77
2023-03-06T18:23:34.197Z,24.90
2023-03-06T18:26:12.089Z,24.65
2023-03-06T18:28:42.608Z,24.98
2023-03-06T18:31:16.984Z,23.60
2023-03-06T18:33:44.095Z,21.92
2023-03-06T18:36:11.411Z,24.60
2023-03-06T18:38:40.171Z,23.63
2023-03-06T18:41:08.409Z,27.10
2023-03-06T18:43:36.087Z,21.95
2023-03-06T18:46:03.385Z,23.90
2023-03-06T18:48:30.642Z,23.48
2023-03-06T18:50:57.772Z,22.13
2023-03-06T18:53:24.918Z,25.90
2023-03-06T18:55:53.551Z,23.23
2023-03-06T18:58:21.779Z,19.90
2023-03-06T19:00:49.282Z,27.25
2023-03-06T19:03:16.920Z,22.13
2023-03-06T19:05:45.355Z,22.55
2023-03-06T19:08:12.855Z,23.73
2023-03-06T19:10:41.058Z,27.88
2023-03-06T19:13:08.713Z,22.63
2023-03-06T19:15:39.626Z,27.23
2023-03-06T19:18:06.731Z,24.48
2023-03-06T19:20:33.847Z,24.92
2023-03-06T19:23:01.692Z,26.17
2023-03-06T19:25:28.845Z,26.33
2023-03-06T19:27:55.924Z,31.15
2023-03-06T19:30:25.649Z,29.60
2023-03-06T19:32:53.753Z,28.45
2023-03-06T19:35:21.168Z,29.00
2023-03-06T19:37:48.324Z,28.27
2023-03-06T19:40:15.730Z,27.30
2023-03-06T19:42:42.876Z,29.30
2023-03-06T19:45:10.267Z,26.73
2023-03-06T19:47:37.609Z,27.17
2023-03-06T19:50:04.881Z,23.27
2023-03-06T19:52:32.138Z,28.00
2023-03-06T19:54:59.243Z,29.50
2023-03-06T19:57:26.345Z,27.15
2023-03-06T19:59:53.575Z,28.05
2023-03-06T20:02:26.363Z,29.08
2023-03-06T20:04:54.309Z,29.77
2023-03-06T20:07:21.947Z,26.67
2023-03-06T20:09:49.125Z,31.20
2023-03-06T20:12:16.682Z,29.90
2023-03-06T20:14:46.025Z,30.27
2023-03-06T20:17:13.154Z,30.17
2023-03-06T20:19:40.503Z,31.67
2023-03-06T20:22:07.571Z,28.35
2023-03-06T20:24:34.701Z,30.15
2023-03-06T20:27:02.011Z,31.70
2023-03-06T20:29:29.077Z,32.08
2023-03-06T20:31:57.150Z,33.65
2023-03-06T20:34:24.652Z,30.08
2023-03-06T20:36:52.072Z,30.30
2023-03-06T20:39:22.805Z,33.47
2023-03-06T20:41:50.288Z,37.40
2023-03-06T20:44:19.422Z,34.55
2023-03-06T20:46:46.920Z,35.72
2023-03-06T20:49:14.740Z,36.00
2023-03-06T20:51:42.147Z,39.22
2023-03-06T20:54:10.797Z,44.63
2023-03-06T20:56:39.700Z,43.22
2023-03-06T20:59:07.114Z,44.42
2023-03-06T21:01:39.029Z,43.13
2023-03-06T21:04:06.427Z,45.55
2023-03-06T21:06:33.691Z,42.28
2023-03-06T21:09:01.586Z,50.60
2023-03-06T21:11:29.240Z,43.90
2023-03-06T21:13:56.489Z,41.20
2023-03-06T21:16:24.718Z,43.63
2023-03-06T21:18:52.527Z,42.08
2023-03-06T21:21:21.020Z,40.08
2023-03-06T21:23:48.956Z,44.88
2023-03-06T21:26:20.721Z,44.97
2023-03-06T21:28:47.821Z,39.90
2023-03-06T21:31:16.057Z,40.17
2023-03-06T21:33:43.860Z,44.58
2023-03-06T21:36:11.251Z,48.50
2023-03-06T21:38:38.623Z,44.47
2023-03-06T21:41:08.727Z,44.28
2023-03-06T21:43:35.820Z,46.45
2023-03-06T21:46:03.218Z,43.35
2023-03-06T21:48:30.524Z,48.95
2023-03-06T21:51:04.643Z,45.75
2023-03-06T21:53:31.840Z,48.10
2023-03-06T21:56:01.474Z,48.10
2023-03-06T21:58:28.802Z,47.45
2023-03-06T22:00:56.024Z,51.95
2023-03-06T22:03:23.140Z,56.58
2023-03-06T22:05:51.980Z,51.45
2023-03-06T22:08:24.291Z,52.35
2023-03-06T22:10:51.370Z,54.60
2023-03-06T22:13:19.200Z,52.45
2023-03-06T22:15:53.322Z,50.03
2023-03-06T22:18:20.421Z,49.38
2023-03-06T22:20:47.552Z,53.72
2023-03-06T22:23:14.952Z,49.05
2023-03-06T22:25:42.083Z,50.92
2023-03-06T22:28:09.198Z,53.58
2023-03-06T22:30:36.385Z,52.70
2023-03-06T22:33:03.539Z,58.47
2023-03-06T22:35:30.731Z,51.25
2023-03-06T22:37:58.734Z,49.88
2023-03-06T22:40:26.069Z,45.85
2023-03-06T22:42:53.171Z,50.28
2023-03-06T22:45:20.359Z,48.42
2023-03-06T22:47:47.451Z,44.50
2023-03-06T22:50:14.600Z,44.28
2023-03-06T22:52:41.772Z,39.60
2023-03-06T22:55:09.608Z,41.65
2023-03-06T22:57:36.717Z,40.72
2023-03-06T23:00:04.216Z,37.15
2023-03-06T23:02:35.117Z,39.92
2023-03-06T23:05:02.317Z,38.25
2023-03-06T23:07:29.547Z,38.60
2023-03-06T23:09:56.708Z,40.03
2023-03-06T23:12:23.819Z,36.35
2023-03-06T23:14:51.135Z,36.97
2023-03-06T23:17:18.474Z,39.80
2023-03-06T23:19:45.743Z,40.65
2023-03-06T23:22:14.409Z,37.08
2023-03-06T23:24:41.524Z,37.70
2023-03-06T23:27:08.623Z,33.03
2023-03-06T23:29:35.764Z,34.85
2023-03-06T23:32:03.010Z,33.90
2023-03-06T23:34:30.179Z,36.25
2023-03-06T23:36:57.343Z,32.08
2023-03-06T23:39:24.500Z,35.20
2023-03-06T23:41:51.662Z,36.15
2023-03-06T23:44:18.967Z,37.63
2023-03-06T23:46:46.179Z,38.20
2023-03-06T23:49:13.343Z,36.20
2023-03-06T23:51:40.496Z,40.15
2023-03-06T23:54:07.638Z,35.10
2023-03-06T23:56:34.724Z,39.17
2023-03-06T23:59:01.911Z,34.35
